Time;durP1;ratioP1;P1;durP2;ratioP2;P2;SDS_P1;SDS_P2;PMS_P1;PMS_P2;Temp;Humidity;BMP_temperature;BMP_pressure;BME280_temperature;BME280_humidity;BME280_pressure;Samples;Min_cycle;Max_cycle;Signal;HPM_P1;HPM_P2
2022/04/30 00:00:40;;;;;;;7.75;4.63;;;;;;;;;;5071747;28;20048;-69
2022/04/30 00:03:07;;;;;;;7.68;4.05;;;15.10;55.80;;;;;;5071681;28;20055;-68
2022/04/30 00:05:35;;;;;;;6.45;3.88;;;15.10;57.90;;;;;;5072672;28;20052;-69
2022/04/30 00:08:03;;;;;;;9.02;4.40;;;;;;;;;;5071775;28;20476;-69
2022/04/30 00:10:30;;;;;;;7.45;4.43;;;14.70;50.40;;;;;;5072592;28;20510;-69
2022/04/30 00:12:57;;;;;;;7.28;4.40;;;15.00;57.70;;;;;;5072958;28;20052;-68
2022/04/30 00:15:24;;;;;;;6.88;4.30;;;14.70;54.40;;;;;;5071643;28;20048;-68
2022/04/30 00:17:51;;;;;;;8.02;4.00;;;;;;;;;;5072844;28;20057;-68
2022/04/30 00:20:18;;;;;;;6.38;3.88;;;15.00;53.60;;;;;;5073497;28;20063;-69
2022/04/30 00:22:46;;;;;;;7.25;3.90;;;14.60;57.30;;;;;;5093083;28;20404;-68
2022/04/30 00:25:14;;;;;;;6.10;3.92;;;15.00;57.80;;;;;;5092713;28;20079;-68
2022/04/30 00:27:40;;;;;;;7.55;4.40;;;15.00;53.80;;;;;;5091536;28;20052;-68
2022/04/30 00:30:08;;;;;;;5.97;3.90;;;15.10;57.70;;;;;;5092664;28;20050;-68
2022/04/30 00:32:36;;;;;;;5.88;3.80;;;15.10;57.70;;;;;;5125729;27;20059;-68
2022/04/30 00:35:03;;;;;;;6.85;3.72;;;14.90;57.50;;;;;;5092868;28;20105;-68
2022/04/30 00:37:30;;;;;;;7.90;3.92;;;15.10;58.00;;;;;;5077408;28;20053;-68
2022/04/30 00:39:58;;;;;;;6.72;3.90;;;15.00;53.20;;;;;;5072286;28;20060;-68
2022/04/30 00:42:25;;;;;;;6.57;3.72;;;14.60;57.50;;;;;;5072359;28;20053;-69
2022/04/30 00:44:51;;;;;;;5.93;3.90;;;14.90;57.60;;;;;;5072498;28;20044;-68
2022/04/30 00:47:19;;;;;;;6.80;3.85;;;14.90;57.80;;;;;;5072032;28;20059;-68
2022/04/30 00:49:45;;;;;;;7.20;4.20;;;14.90;52.30;;;;;;5070911;28;20052;-69
2022/04/30 00:52:14;;;;;;;8.13;4.25;;;14.90;50.60;;;;;;5071756;28;20059;-68
2022/04/30 00:54:41;;;;;;;6.93;3.83;;;15.30;57.90;;;;;;5071960;28;20437;-68
2022/04/30 00:57:10;;;;;;;7.57;3.72;;;14.90;57.70;;;;;;5072037;28;20040;-68
2022/04/30 00:59:37;;;;;;;6.85;3.53;;;14.70;57.80;;;;;;5070741;28;20053;-68
2022/04/30 01:02:04;;;;;;;5.97;3.83;;;14.90;57.60;;;;;;5071831;28;20049;-68
2022/04/30 01:04:30;;;;;;;5.10;3.30;;;14.80;57.60;;;;;;5104866;28;20074;-68
2022/04/30 01:06:58;;;;;;;5.10;3.45;;;14.80;50.60;;;;;;5071644;28;20143;-69
2022/04/30 01:09:26;;;;;;;6.60;4.00;;;14.80;57.90;;;;;;5073001;28;20048;-70
2022/04/30 01:11:55;;;;;;;5.95;3.28;;;14.90;57.80;;;;;;5070746;28;20139;-70
2022/04/30 01:14:26;;;;;;;6.80;3.78;;;14.90;57.90;;;;;;5071946;28;20054;-68
2022/04/30 01:16:52;;;;;;;6.05;3.78;;;14.80;58.00;;;;;;5071688;28;20537;-68
2022/04/30 01:19:23;;;;;;;6.55;3.72;;;14.80;50.50;;;;;;5070532;28;20062;-70
2022/04/30 01:21:51;;;;;;;6.22;3.53;;;14.80;50.50;;;;;;5071957;28;20170;-70
2022/04/30 01:24:21;;;;;;;5.75;3.50;;;14.80;50.50;;;;;;5071794;28;20049;-70
2022/04/30 01:26:48;;;;;;;4.90;3.25;;;14.70;57.60;;;;;;5071660;28;20048;-68
2022/04/30 01:29:17;;;;;;;5.68;3.75;;;14.80;55.00;;;;;;5071460;28;20048;-68
2022/04/30 01:37:24;;;;;;;5.00;3.30;;;14.70;57.90;;;;;;5104285;28;20076;-68
2022/04/30 01:39:56;;;;;;;4.72;3.30;;;14.70;57.80;;;;;;5071406;28;20060;-68
2022/04/30 01:42:23;;;;;;;4.28;3.25;;;14.70;58.00;;;;;;5071470;28;20060;-68
2022/04/30 01:44:49;;;;;;;4.68;3.10;;;14.70;57.70;;;;;;5070521;28;20055;-68
2022/04/30 01:47:17;;;;;;;5.00;3.20;;;14.20;53.70;;;;;;5071538;28;20412;-69
2022/04/30 01:49:44;;;;;;;5.55;3.60;;;14.80;57.80;;;;;;5072688;28;20048;-68
2022/04/30 01:52:13;;;;;;;6.05;3.30;;;14.70;58.00;;;;;;5071248;28;20098;-68
2022/04/30 01:54:39;;;;;;;4.82;3.50;;;14.60;58.00;;;;;;5104048;28;20061;-68
2022/04/30 01:57:07;;;;;;;6.60;3.03;;;14.60;50.50;;;;;;5071265;28;20051;-68
2022/04/30 01:59:35;;;;;;;4.47;3.30;;;;;;;;;;5072498;28;20044;-69
2022/04/30 02:02:02;;;;;;;4.72;3.08;;;14.70;58.00;;;;;;5070247;28;20061;-68
2022/04/30 02:04:29;;;;;;;4.70;3.13;;;;;;;;;;5070376;28;20083;-70
2022/04/30 02:06:56;;;;;;;4.75;3.08;;;14.80;57.90;;;;;;5071647;28;20052;-68
2022/04/30 02:09:23;;;;;;;4.18;3.00;;;14.70;54.90;;;;;;5071257;28;20172;-69
2022/04/30 02:11:50;;;;;;;5.90;3.47;;;14.70;58.10;;;;;;5070261;28;20087;-68
2022/04/30 02:14:19;;;;;;;3.88;2.63;;;14.70;57.80;;;;;;5073691;28;20408;-68
2022/04/30 02:16:45;;;;;;;4.43;2.90;;;14.50;57.80;;;;;;5073923;28;20080;-68
2022/04/30 02:19:12;;;;;;;4.53;2.90;;;14.90;57.80;;;;;;5073505;28;20412;-68
2022/04/30 02:21:39;;;;;;;3.92;3.10;;;;;;;;;;5075159;28;20052;-69
2022/04/30 02:24:07;;;;;;;4.13;3.05;;;14.70;50.50;;;;;;5075022;28;20044;-68
2022/04/30 02:26:34;;;;;;;3.83;3.00;;;14.80;57.90;;;;;;5073834;28;20066;-68
2022/04/30 02:29:01;;;;;;;3.83;3.15;;;14.70;57.90;;;;;;5075205;28;20075;-68
2022/04/30 02:31:29;;;;;;;4.03;3.40;;;14.80;57.90;;;;;;5086343;28;20055;-69
2022/04/30 02:33:56;;;;;;;4.45;2.95;;;14.90;57.90;;;;;;5095020;28;20059;-69
2022/04/30 02:36:25;;;;;;;3.92;2.90;;;14.90;54.30;;;;;;5094861;28;20048;-69
2022/04/30 02:38:53;;;;;;;4.43;2.88;;;15.30;58.00;;;;;;5094132;28;20489;-68
2022/04/30 02:41:21;;;;;;;5.82;2.85;;;14.80;56.80;;;;;;5094469;28;20051;-69
2022/04/30 02:43:48;;;;;;;4.28;3.03;;;;;;;;;;5093923;28;20070;-68
2022/04/30 02:46:15;;;;;;;3.00;2.55;;;14.70;57.70;;;;;;5093145;28;20500;-68
2022/04/30 02:48:43;;;;;;;3.38;2.60;;;14.70;50.90;;;;;;5094981;28;20050;-68
2022/04/30 02:51:10;;;;;;;4.40;2.90;;;14.70;55.20;;;;;;5093535;28;20047;-69
2022/04/30 02:53:37;;;;;;;3.58;2.85;;;14.40;57.20;;;;;;5094708;28;20496;-68
2022/04/30 02:56:04;;;;;;;3.70;3.15;;;14.80;51.20;;;;;;5094296;28;20051;-69
2022/04/30 03:01:15;;;;;;;4.10;2.90;;;14.30;57.50;;;;;;5127647;27;20051;-69
2022/04/30 03:03:44;;;;;;;4.75;2.97;;;14.70;57.70;;;;;;5082956;28;20044;-68
2022/04/30 03:06:12;;;;;;;4.05;3.03;;;14.80;52.00;;;;;;5075680;28;20511;-68
2022/04/30 03:08:39;;;;;;;4.20;3.00;;;14.70;57.70;;;;;;5074208;28;20044;-68
2022/04/30 03:11:07;;;;;;;3.55;3.00;;;;;;;;;;5072918;28;20056;-68
2022/04/30 03:13:36;;;;;;;3.88;2.70;;;;;;;;;;5074145;28;20059;-68
2022/04/30 03:21:45;;;;;;;4.00;2.65;;;14.70;52.30;;;;;;5073792;28;20044;-68
2022/04/30 03:24:12;;;;;;;3.72;2.80;;;14.70;57.50;;;;;;5073917;28;20057;-68
2022/04/30 03:26:39;;;;;;;3.33;2.80;;;;;;;;;;5073693;28;20396;-69
2022/04/30 03:29:06;;;;;;;3.85;2.60;;;14.80;57.80;;;;;;5074220;28;20389;-69
2022/04/30 03:31:32;;;;;;;3.50;2.80;;;14.70;57.70;;;;;;5073602;28;20102;-68
2022/04/30 03:34:01;;;;;;;4.28;2.97;;;14.80;57.60;;;;;;5072611;28;20507;-69
2022/04/30 03:36:28;;;;;;;4.32;2.80;;;14.80;54.60;;;;;;5083419;28;20052;-68
2022/04/30 03:38:55;;;;;;;3.70;2.70;;;;;;;;;;5093712;28;20048;-68
2022/04/30 03:41:22;;;;;;;3.67;2.80;;;;;;;;;;5094013;28;20048;-68
2022/04/30 03:43:49;;;;;;;4.55;3.25;;;;;;;;;;5089637;28;20067;-69
2022/04/30 03:46:17;;;;;;;3.88;2.67;;;;;;;;;;5073213;28;20055;-69
2022/04/30 03:48:44;;;;;;;3.17;2.67;;;14.30;55.00;;;;;;5072462;28;20500;-70
2022/04/30 03:51:13;;;;;;;3.60;2.60;;;14.80;57.50;;;;;;5073317;28;20071;-71
2022/04/30 03:53:39;;;;;;;3.95;2.60;;;14.30;52.20;;;;;;5093530;28;20048;-70
2022/04/30 03:56:08;;;;;;;3.33;2.50;;;14.80;57.30;;;;;;5093370;28;20051;-70
2022/04/30 03:58:34;;;;;;;4.22;2.38;;;14.40;57.10;;;;;;5093448;28;20052;-70
2022/04/30 04:01:01;;;;;;;4.25;2.67;;;;;;;;;;5092995;28;20047;-70
2022/04/30 04:03:28;;;;;;;4.13;2.65;;;14.90;57.60;;;;;;5093621;28;20416;-70
2022/04/30 04:05:55;;;;;;;3.63;2.58;;;14.80;57.60;;;;;;5092000;28;20054;-70
2022/04/30 04:08:24;;;;;;;4.65;2.58;;;14.80;50.10;;;;;;5091433;28;20050;-69
2022/04/30 04:10:52;;;;;;;2.97;2.20;;;;;;;;;;5093088;28;20046;-70
2022/04/30 04:18:51;;;;;;;2.97;2.33;;;14.40;57.40;;;;;;5120748;27;20131;-69
2022/04/30 04:21:18;;;;;;;3.10;2.50;;;;;;;;;;5091572;28;20079;-68
2022/04/30 04:26:31;;;;;;;2.40;2.20;;;15.50;57.00;;;;;;5072561;28;20044;-69
2022/04/30 04:28:57;;;;;;;2.30;2.10;;;14.90;57.50;;;;;;5072918;28;20127;-69
2022/04/30 04:31:24;;;;;;;3.00;2.10;;;;;;;;;;5071147;28;20536;-69
2022/04/30 04:33:51;;;;;;;3.13;2.20;;;15.00;57.50;;;;;;5072608;28;20050;-69
2022/04/30 04:36:18;;;;;;;4.20;2.70;;;15.20;57.20;;;;;;5070806;28;20064;-68
2022/04/30 04:38:46;;;;;;;4.32;2.83;;;14.90;49.80;;;;;;5072075;28;20048;-69
2022/04/30 04:41:13;;;;;;;2.58;2.20;;;;;;;;;;5081694;28;20048;-69
2022/04/30 04:43:39;;;;;;;2.50;1.95;;;15.30;56.80;;;;;;5092658;28;20052;-68
2022/04/30 04:46:06;;;;;;;2.85;2.08;;;14.80;56.70;;;;;;5091167;28;20062;-68
2022/04/30 04:48:33;;;;;;;2.55;2.25;;;15.80;54.30;;;;;;5092740;28;20044;-68
2022/04/30 04:51:00;;;;;;;3.72;2.05;;;15.00;56.70;;;;;;5092419;28;20052;-68
2022/04/30 04:53:27;;;;;;;3.35;2.10;;;;;;;;;;5092274;28;20048;-68
2022/04/30 04:55:55;;;;;;;2.72;2.33;;;15.10;56.70;;;;;;5091399;28;20488;-68
2022/04/30 04:58:22;;;;;;;2.47;2.15;;;14.50;56.30;;;;;;5090632;28;20485;-68
2022/04/30 05:00:49;;;;;;;2.88;2.22;;;14.70;56.50;;;;;;5092410;28;20052;-68
2022/04/30 05:03:16;;;;;;;2.83;2.17;;;15.10;56.70;;;;;;5091174;28;20054;-68
2022/04/30 05:05:42;;;;;;;2.30;1.95;;;15.10;57.00;;;;;;5091002;28;20509;-68
2022/04/30 05:08:09;;;;;;;2.35;2.13;;;;;;;;;;5092505;28;20046;-69
2022/04/30 05:10:36;;;;;;;2.65;1.90;;;15.20;56.70;;;;;;5092219;28;20127;-68
2022/04/30 05:13:05;;;;;;;2.75;2.00;;;15.10;49.60;;;;;;5088931;28;20051;-69
2022/04/30 05:15:32;;;;;;;4.15;2.20;;;15.00;52.10;;;;;;5089070;28;20054;-69
2022/04/30 05:17:58;;;;;;;2.88;2.38;;;15.20;56.70;;;;;;5091997;28;20056;-68
2022/04/30 05:20:25;;;;;;;2.10;1.85;;;15.10;56.70;;;;;;5124679;27;20088;-69
2022/04/30 05:22:52;;;;;;;2.38;1.90;;;15.10;56.90;;;;;;5092043;28;20074;-69
2022/04/30 05:25:19;;;;;;;3.35;2.03;;;14.70;56.40;;;;;;5092018;28;20052;-69
2022/04/30 05:27:46;;;;;;;4.15;1.98;;;;;;;;;;5091951;28;20420;-69
2022/04/30 05:30:14;;;;;;;2.00;1.70;;;14.90;56.70;;;;;;5088737;28;20503;-69
2022/04/30 05:32:41;;;;;;;2.40;1.80;;;15.20;56.70;;;;;;5091751;28;20052;-69
2022/04/30 05:35:08;;;;;;;2.50;1.90;;;15.20;49.60;;;;;;5090930;28;20135;-69
2022/04/30 05:37:35;;;;;;;3.35;1.80;;;15.00;56.80;;;;;;5091232;28;20044;-69
2022/04/30 05:40:02;;;;;;;2.92;1.90;;;14.90;56.80;;;;;;5090886;28;20048;-70
2022/04/30 05:42:28;;;;;;;2.70;1.90;;;14.70;56.40;;;;;;5090841;28;20060;-68
2022/04/30 05:44:55;;;;;;;3.40;1.85;;;15.30;56.80;;;;;;5090532;28;20416;-69
2022/04/30 05:47:23;;;;;;;2.10;1.90;;;15.20;56.70;;;;;;5072712;28;20051;-69
2022/04/30 05:49:50;;;;;;;3.05;1.92;;;14.50;56.30;;;;;;5095426;28;20050;-69
2022/04/30 05:52:19;;;;;;;2.00;1.77;;;15.30;56.80;;;;;;5095857;28;20052;-69
2022/04/30 05:54:46;;;;;;;2.60;1.95;;;15.30;56.80;;;;;;5096126;28;20059;-68
2022/04/30 05:57:12;;;;;;;2.15;1.88;;;14.70;51.80;;;;;;5096233;28;20058;-68
2022/04/30 05:59:39;;;;;;;2.60;1.90;;;;;;;;;;5095349;28;20493;-68
2022/04/30 06:02:06;;;;;;;2.20;1.90;;;15.20;57.00;;;;;;5078920;28;20058;-69
2022/04/30 06:04:34;;;;;;;2.65;2.03;;;15.20;53.10;;;;;;5075752;28;20401;-68
2022/04/30 06:07:01;;;;;;;2.40;1.90;;;15.40;52.20;;;;;;5075336;28;20057;-68
2022/04/30 06:09:27;;;;;;;2.05;1.77;;;15.20;56.90;;;;;;5083997;28;20044;-69
2022/04/30 06:11:54;;;;;;;3.15;2.08;;;15.40;56.60;;;;;;5094512;28;20481;-69
2022/04/30 06:14:21;;;;;;;2.17;1.80;;;15.40;53.50;;;;;;5090734;28;20055;-68
2022/04/30 06:16:48;;;;;;;2.15;1.83;;;15.70;56.80;;;;;;5075087;28;20044;-69
2022/04/30 06:19:15;;;;;;;2.58;1.90;;;15.40;56.80;;;;;;5075143;28;20417;-69
2022/04/30 06:21:45;;;;;;;1.90;1.63;;;15.40;49.30;;;;;;5075438;28;20048;-68
2022/04/30 06:24:12;;;;;;;2.25;1.90;;;15.20;56.60;;;;;;5074886;28;20079;-68
2022/04/30 06:26:39;;;;;;;2.55;1.85;;;16.30;57.30;;;;;;5075345;28;20044;-69
2022/04/30 06:29:06;;;;;;;2.00;1.80;;;15.30;56.40;;;;;;5074851;28;20052;-68
2022/04/30 06:31:32;;;;;;;1.92;1.70;;;15.70;56.60;;;;;;5074896;28;20481;-70
2022/04/30 06:33:59;;;;;;;2.10;1.75;;;;;;;;;;5082273;28;20054;-71
2022/04/30 06:36:26;;;;;;;2.45;1.80;;;15.90;56.30;;;;;;5093257;28;20055;-71
2022/04/30 06:38:54;;;;;;;2.97;1.90;;;15.80;56.40;;;;;;5093971;28;20052;-71
2022/04/30 06:41:22;;;;;;;2.70;1.77;;;16.00;56.10;;;;;;5095022;28;20048;-71
2022/04/30 06:43:49;;;;;;;2.50;1.80;;;16.40;56.00;;;;;;5095312;28;20063;-71
2022/04/30 06:46:16;;;;;;;2.45;1.83;;;;;;;;;;5094910;28;20547;-70
2022/04/30 06:48:44;;;;;;;2.42;1.77;;;16.10;55.60;;;;;;5074941;28;20521;-71
2022/04/30 06:51:11;;;;;;;3.35;1.90;;;16.30;56.00;;;;;;5074602;28;20052;-71
2022/04/30 06:59:10;;;;;;;2.03;1.52;;;16.40;55.50;;;;;;5074466;28;20083;-71
2022/04/30 07:01:43;;;;;;;4.72;1.70;;;16.60;55.30;;;;;;5072631;28;20405;-71
2022/04/30 07:04:10;;;;;;;2.20;1.77;;;16.70;55.70;;;;;;5084432;28;20094;-71
2022/04/30 07:06:37;;;;;;;2.15;1.60;;;16.60;55.60;;;;;;5094884;28;20086;-71
2022/04/30 07:09:05;;;;;;;1.98;1.52;;;16.60;55.50;;;;;;5094687;28;20047;-71
2022/04/30 07:11:33;;;;;;;2.22;1.80;;;17.20;55.80;;;;;;5094473;28;20481;-70
2022/04/30 07:14:00;;;;;;;4.18;1.90;;;17.30;55.50;;;;;;5094680;28;20044;-71
2022/04/30 07:16:27;;;;;;;1.92;1.60;;;;;;;;;;5094376;28;20063;-71
2022/04/30 07:18:53;;;;;;;3.58;1.80;;;16.70;55.40;;;;;;5092601;28;20052;-70
2022/04/30 07:21:20;;;;;;;2.15;1.60;;;16.90;55.30;;;;;;5094364;28;20048;-71
2022/04/30 07:23:47;;;;;;;2.90;1.60;;;16.80;55.20;;;;;;5076418;28;20059;-70
2022/04/30 07:26:13;;;;;;;1.52;1.30;;;16.90;55.20;;;;;;5073890;28;20048;-70
2022/04/30 07:28:41;;;;;;;1.75;1.48;;;16.60;55.20;;;;;;5073904;28;20062;-70
2022/04/30 07:31:09;;;;;;;1.92;1.52;;;16.80;55.00;;;;;;5073486;28;20044;-70
2022/04/30 07:33:35;;;;;;;3.63;1.60;;;17.30;55.80;;;;;;5073987;28;20048;-70
2022/04/30 07:36:03;;;;;;;2.10;1.50;;;16.80;55.00;;;;;;5074038;28;20500;-70
2022/04/30 07:38:29;;;;;;;2.00;1.60;;;16.80;55.00;;;;;;5073815;28;20392;-70
2022/04/30 07:40:56;;;;;;;2.47;1.48;;;16.90;54.90;;;;;;5072653;28;20052;-70
2022/04/30 07:43:23;;;;;;;2.08;1.45;;;16.90;54.80;;;;;;5073634;28;20266;-70
2022/04/30 07:45:51;;;;;;;2.10;1.42;;;16.80;54.90;;;;;;5072107;28;20056;-70
2022/04/30 07:48:17;;;;;;;2.33;1.45;;;17.00;49.10;;;;;;5086458;28;20040;-71
2022/04/30 07:50:45;;;;;;;1.50;1.40;;;17.00;55.10;;;;;;5092558;28;20052;-70
2022/04/30 07:53:13;;;;;;;1.92;1.30;;;17.10;48.60;;;;;;5073219;28;20060;-71
2022/04/30 07:55:40;;;;;;;2.75;1.60;;;16.90;48.90;;;;;;5073220;28;20054;-70
2022/04/30 07:58:07;;;;;;;1.75;1.40;;;16.90;55.00;;;;;;5073304;28;20520;-70
2022/04/30 08:00:34;;;;;;;1.83;1.42;;;;;;;;;;5073202;28;20059;-69
2022/04/30 08:03:03;;;;;;;3.17;1.45;;;16.90;54.90;;;;;;5073595;28;20075;-69
2022/04/30 08:05:30;;;;;;;4.35;1.60;;;17.10;55.10;;;;;;5092880;28;20044;-69
2022/04/30 08:07:57;;;;;;;3.15;1.50;;;17.00;54.70;;;;;;5093242;28;20058;-70
2022/04/30 08:10:23;;;;;;;2.88;1.63;;;17.10;54.70;;;;;;5092197;28;20062;-70
2022/04/30 08:12:53;;;;;;;3.25;1.70;;;17.10;48.70;;;;;;5091054;28;20131;-72
2022/04/30 08:15:20;;;;;;;5.07;1.50;;;17.10;55.20;;;;;;5093400;28;20087;-71
2022/04/30 08:17:47;;;;;;;2.38;1.65;;;17.30;55.10;;;;;;5092059;28;20044;-70
2022/04/30 08:20:15;;;;;;;4.82;1.50;;;16.50;54.70;;;;;;5092445;28;20052;-72
2022/04/30 08:22:42;;;;;;;4.82;1.80;;;17.10;55.00;;;;;;5091910;28;20672;-71
2022/04/30 08:25:09;;;;;;;3.88;1.58;;;17.10;48.10;;;;;;5092418;28;20051;-71
2022/04/30 08:27:36;;;;;;;2.00;1.60;;;17.30;54.80;;;;;;5092142;28;20052;-70
2022/04/30 08:30:03;;;;;;;3.25;1.42;;;17.40;55.00;;;;;;5090788;28;20048;-71
2022/04/30 08:32:30;;;;;;;13.38;4.43;;;17.20;54.60;;;;;;5092358;28;20049;-72
2022/04/30 08:34:57;;;;;;;6.30;3.20;;;17.90;54.90;;;;;;5080933;28;20047;-72
2022/04/30 08:37:26;;;;;;;12.02;4.72;;;16.20;53.90;;;;;;5092819;27;20435;-72
2022/04/30 08:39:53;;;;;;;13.93;4.95;;;18.00;49.00;;;;;;5092388;28;20040;-71
2022/04/30 08:42:20;;;;;;;16.00;5.45;;;17.30;54.80;;;;;;5099196;28;20044;-72
2022/04/30 08:44:47;;;;;;;14.80;4.68;;;17.30;54.80;;;;;;5101280;28;20423;-71
2022/04/30 08:47:13;;;;;;;16.25;5.28;;;17.50;54.50;;;;;;5103435;28;20059;-72
2022/04/30 08:49:41;;;;;;;14.55;4.88;;;17.60;54.90;;;;;;5098563;28;20043;-72
2022/04/30 08:52:08;;;;;;;12.88;3.92;;;18.00;54.70;;;;;;5102094;28;20047;-72
2022/04/30 08:54:36;;;;;;;10.13;4.43;;;16.30;54.10;;;;;;5098715;28;20058;-72
2022/04/30 08:57:03;;;;;;;11.05;3.85;;;17.10;54.30;;;;;;5101261;28;20062;-72
2022/04/30 08:59:30;;;;;;;10.88;3.88;;;17.50;54.70;;;;;;5100992;28;20458;-72
2022/04/30 09:01:58;;;;;;;9.73;3.92;;;17.90;54.90;;;;;;5103098;28;20052;-72
2022/04/30 09:04:25;;;;;;;8.85;3.40;;;17.00;54.00;;;;;;5102046;28;20055;-72
2022/04/30 09:06:52;;;;;;;14.77;3.60;;;17.30;47.70;;;;;;5101229;28;20070;-71
2022/04/30 09:09:23;;;;;;;9.05;3.40;;;18.00;54.50;;;;;;5098391;28;20083;-72
2022/04/30 09:11:53;;;;;;;8.63;3.20;;;17.50;54.60;;;;;;5098295;28;20446;-72
2022/04/30 09:14:26;;;;;;;6.85;2.85;;;17.30;47.70;;;;;;5079375;28;20067;-71
2022/04/30 09:17:02;;;;;;;7.78;3.42;;;17.40;54.20;;;;;;5124999;27;20123;-71
2022/04/30 09:19:29;;;;;;;8.30;3.08;;;17.30;54.30;;;;;;5095862;28;20450;-72
2022/04/30 09:21:56;;;;;;;7.93;3.25;;;16.90;48.60;;;;;;5098918;28;20054;-72
2022/04/30 09:24:23;;;;;;;7.35;3.03;;;17.20;54.00;;;;;;5098517;28;20126;-72
2022/04/30 09:26:52;;;;;;;7.03;2.92;;;17.50;54.20;;;;;;5101846;28;20059;-72
2022/04/30 09:29:20;;;;;;;8.07;3.58;;;17.40;54.40;;;;;;5089429;28;20440;-72
2022/04/30 09:31:50;;;;;;;8.88;3.95;;;17.30;54.20;;;;;;5090398;28;20051;-72
2022/04/30 09:39:46;;;;;;;77.30;23.63;;;;;;;;;;5123957;28;20036;-70
2022/04/30 09:42:15;;;;;;;92.22;26.48;;;17.30;54.30;;;;;;5082886;28;20056;-71
2022/04/30 09:44:41;;;;;;;78.35;21.83;;;17.50;54.40;;;;;;5073783;28;20052;-71
2022/04/30 09:47:08;;;;;;;82.72;24.55;;;17.60;54.50;;;;;;5091509;28;20127;-71
2022/04/30 09:55:15;;;;;;;72.25;20.17;;;18.40;54.60;;;;;;5092198;28;20131;-73
2022/04/30 09:57:43;;;;;;;60.38;18.90;;;17.30;54.20;;;;;;5088857;28;20058;-73
2022/04/30 10:00:10;;;;;;;53.63;17.70;;;17.60;54.00;;;;;;5091412;28;20381;-72
2022/04/30 10:02:37;;;;;;;44.72;15.00;;;16.90;53.70;;;;;;5090032;28;20060;-72
2022/04/30 10:05:05;;;;;;;44.15;13.80;;;18.50;54.80;;;;;;5091823;28;20055;-73
2022/04/30 10:07:33;;;;;;;41.15;14.13;;;17.60;54.40;;;;;;5091660;28;20055;-72
2022/04/30 10:10:03;;;;;;;39.05;12.07;;;17.40;54.00;;;;;;5077143;28;20094;-72
2022/04/30 10:12:32;;;;;;;36.22;11.23;;;17.80;54.50;;;;;;5070470;28;20060;-72
2022/04/30 10:15:05;;;;;;;33.45;12.10;;;17.80;54.40;;;;;;5071513;28;20429;-74
2022/04/30 10:17:33;;;;;;;35.00;10.40;;;17.70;54.00;;;;;;5071650;28;20432;-71
2022/04/30 10:20:05;;;;;;;32.45;9.70;;;17.90;54.20;;;;;;5078624;28;20130;-71
2022/04/30 10:22:32;;;;;;;24.13;9.02;;;17.70;51.10;;;;;;5092571;28;20137;-71
2022/04/30 10:24:59;;;;;;;26.17;9.10;;;17.60;54.00;;;;;;5089454;28;20518;-71
2022/04/30 10:27:37;;;;;;;26.67;8.93;;;17.80;54.40;;;;;;5091121;28;20511;-71
2022/04/30 10:30:11;;;;;;;26.02;8.52;;;17.40;54.20;;;;;;5089880;28;20066;-71
2022/04/30 10:32:38;;;;;;;21.60;7.88;;;17.70;48.60;;;;;;5087963;28;20054;-71
2022/04/30 10:35:05;;;;;;;23.92;7.85;;;17.90;54.80;;;;;;5091795;28;20043;-71
2022/04/30 10:37:33;;;;;;;28.42;8.93;;;17.70;54.40;;;;;;5095194;28;20040;-71
2022/04/30 10:40:00;;;;;;;24.48;6.90;;;17.80;54.50;;;;;;5077988;28;20056;-72
2022/04/30 10:42:33;;;;;;;22.38;7.28;;;18.10;54.50;;;;;;5074927;28;20048;-71
2022/04/30 10:45:00;;;;;;;24.55;7.40;;;17.80;54.50;;;;;;5075063;28;20131;-70
2022/04/30 10:47:28;;;;;;;18.83;7.30;;;17.70;54.70;;;;;;5100436;28;20515;-72
2022/04/30 10:49:55;;;;;;;20.75;7.18;;;17.80;54.60;;;;;;5103287;28;20078;-71
2022/04/30 10:52:24;;;;;;;18.20;6.32;;;17.70;54.70;;;;;;5104287;28;20062;-70
2022/04/30 10:54:51;;;;;;;19.10;6.45;;;17.90;54.60;;;;;;5113056;28;20060;-71
2022/04/30 10:57:18;;;;;;;17.77;6.78;;;16.80;54.00;;;;;;5102579;28;20135;-70
2022/04/30 10:59:45;;;;;;;16.38;6.50;;;17.90;54.70;;;;;;5095008;28;20054;-71
2022/04/30 11:02:12;;;;;;;16.80;6.20;;;17.80;54.70;;;;;;5103016;28;20403;-71
2022/04/30 11:04:42;;;;;;;16.10;6.15;;;17.70;54.40;;;;;;5100942;28;20052;-71
2022/04/30 11:07:09;;;;;;;12.60;5.28;;;17.60;54.50;;;;;;5110957;28;20040;-72
2022/04/30 11:09:42;;;;;;;19.30;6.03;;;17.10;54.20;;;;;;5088119;28;20481;-71
2022/04/30 11:12:12;;;;;;;17.13;6.13;;;17.40;54.60;;;;;;5074752;28;20078;-69
2022/04/30 11:14:39;;;;;;;14.75;4.13;;;17.90;53.20;;;;;;5084195;28;20052;-71
2022/04/30 11:17:06;;;;;;;6.68;3.30;;;17.70;53.70;;;;;;5093375;28;20554;-71
2022/04/30 11:19:33;;;;;;;9.43;2.97;;;17.70;53.10;;;;;;5126932;27;20048;-71
2022/04/30 11:22:01;;;;;;;12.00;3.55;;;17.50;52.60;;;;;;5087350;27;20040;-68
2022/04/30 11:24:28;;;;;;;9.20;3.70;;;16.40;52.30;;;;;;5088806;28;20044;-69
2022/04/30 11:26:56;;;;;;;11.55;3.70;;;18.30;53.90;;;;;;5093182;28;20059;-69
2022/04/30 11:29:22;;;;;;;7.60;3.53;;;17.90;53.70;;;;;;5093049;28;20055;-69
2022/04/30 11:31:51;;;;;;;6.82;3.22;;;17.30;53.90;;;;;;5092426;28;20507;-71
2022/04/30 11:34:18;;;;;;;7.22;3.20;;;17.50;53.60;;;;;;5093411;28;20044;-71
2022/04/30 11:36:46;;;;;;;6.05;2.97;;;16.60;53.30;;;;;;5094154;28;20046;-69
2022/04/30 11:39:15;;;;;;;7.88;3.55;;;17.20;53.30;;;;;;5094263;28;20048;-69
2022/04/30 11:41:42;;;;;;;8.48;3.50;;;17.80;53.70;;;;;;5093796;28;20052;-69
2022/04/30 11:44:09;;;;;;;6.82;4.00;;;17.40;54.40;;;;;;5093529;28;20052;-69
2022/04/30 11:46:36;;;;;;;9.85;3.47;;;18.20;54.30;;;;;;5092559;28;20052;-71
2022/04/30 11:49:08;;;;;;;6.38;3.20;;;17.50;48.70;;;;;;5092403;28;20063;-71
2022/04/30 11:51:34;;;;;;;8.82;3.10;;;17.20;53.90;;;;;;5093913;28;20044;-70
2022/04/30 11:54:02;;;;;;;6.20;2.97;;;16.70;53.70;;;;;;5127039;27;20056;-70
2022/04/30 11:56:31;;;;;;;7.05;2.83;;;17.60;53.70;;;;;;5093804;28;20067;-70
2022/04/30 11:58:57;;;;;;;5.55;2.78;;;17.60;54.00;;;;;;5093750;28;20051;-71
2022/04/30 12:01:25;;;;;;;6.22;2.35;;;17.60;54.00;;;;;;5080176;28;20052;-71
2022/04/30 12:04:00;;;;;;;5.57;2.88;;;18.20;54.70;;;;;;5093925;28;20044;-70
2022/04/30 12:06:27;;;;;;;5.28;2.40;;;17.20;54.20;;;;;;5081205;28;20396;-70
2022/04/30 12:08:54;;;;;;;8.13;3.00;;;17.50;54.40;;;;;;5106087;28;20056;-70
2022/04/30 12:11:20;;;;;;;7.30;2.97;;;18.10;53.30;;;;;;5073437;28;20049;-70
2022/04/30 12:13:59;;;;;;;5.60;2.63;;;17.50;54.30;;;;;;5106099;28;20052;-69
2022/04/30 12:16:26;;;;;;;6.90;3.40;;;17.40;54.10;;;;;;5073251;28;20048;-69
2022/04/30 12:24:44;;;;;;;7.18;3.35;;;17.40;54.70;;;;;;5112373;27;20052;-69
2022/04/30 12:27:11;;;;;;;6.72;2.58;;;17.40;54.70;;;;;;5071543;28;20468;-70
2022/04/30 12:29:46;;;;;;;6.82;3.20;;;17.40;54.80;;;;;;5085385;28;20043;-71
2022/04/30 12:32:19;;;;;;;7.30;3.15;;;18.00;55.00;;;;;;5096281;28;20043;-71
2022/04/30 12:34:46;;;;;;;6.95;2.92;;;17.50;54.60;;;;;;5101979;28;20044;-70
2022/04/30 12:37:13;;;;;;;6.18;2.85;;;;;;;;;;5101183;28;20036;-69
2022/04/30 12:39:41;;;;;;;6.50;2.75;;;17.60;55.00;;;;;;5101407;28;20048;-70
2022/04/30 12:42:11;;;;;;;6.32;2.67;;;17.40;55.00;;;;;;5103614;28;20131;-70
2022/04/30 12:44:39;;;;;;;6.28;2.90;;;17.00;54.70;;;;;;5099602;28;20048;-70
2022/04/30 12:47:06;;;;;;;7.22;3.00;;;17.30;55.20;;;;;;5102057;28;20416;-70
2022/04/30 12:49:33;;;;;;;7.50;2.80;;;17.60;55.40;;;;;;5103110;28;20075;-70
2022/04/30 12:51:59;;;;;;;6.00;2.60;;;17.20;55.20;;;;;;5092694;28;20052;-70
2022/04/30 12:54:26;;;;;;;5.32;2.95;;;17.40;55.40;;;;;;5092726;28;20411;-71
2022/04/30 12:56:53;;;;;;;3.85;2.40;;;17.40;55.50;;;;;;5091426;28;20044;-71
2022/04/30 12:59:19;;;;;;;10.65;3.13;;;18.10;56.10;;;;;;5092268;28;20058;-70
2022/04/30 13:01:48;;;;;;;6.97;2.88;;;17.20;55.60;;;;;;5092084;28;20040;-71
2022/04/30 13:04:14;;;;;;;6.18;2.90;;;17.60;55.70;;;;;;5092550;28;20079;-72
2022/04/30 13:06:41;;;;;;;9.23;2.60;;;17.60;55.70;;;;;;5091946;28;20047;-70
2022/04/30 13:14:36;;;;;;;5.38;2.70;;;17.60;55.50;;;;;;5091196;28;20052;-71
2022/04/30 13:17:04;;;;;;;9.13;2.63;;;16.40;54.50;;;;;;5091201;28;20481;-70
2022/04/30 13:19:32;;;;;;;9.50;3.03;;;17.40;55.40;;;;;;5091965;28;20054;-70
2022/04/30 13:21:59;;;;;;;6.68;2.75;;;17.50;55.00;;;;;;5092495;28;20463;-70
2022/04/30 13:24:25;;;;;;;7.70;2.80;;;17.20;55.10;;;;;;5090863;28;20058;-70
2022/04/30 13:26:52;;;;;;;5.18;2.70;;;17.30;55.40;;;;;;5092198;28;20048;-70
2022/04/30 13:29:19;;;;;;;8.05;2.90;;;18.00;55.70;;;;;;5092163;28;20228;-70
2022/04/30 13:31:46;;;;;;;7.38;2.80;;;17.60;55.60;;;;;;5091628;28;20082;-70
2022/04/30 13:34:14;;;;;;;5.15;2.60;;;16.80;54.70;;;;;;5092060;28;20048;-70
2022/04/30 13:36:41;;;;;;;6.07;2.83;;;17.60;55.00;;;;;;5090945;28;20056;-70
2022/04/30 13:39:08;;;;;;;5.30;2.70;;;17.40;55.10;;;;;;5092026;28;20132;-70
2022/04/30 13:41:35;;;;;;;8.48;2.58;;;17.60;55.40;;;;;;5091376;28;20408;-70
2022/04/30 13:44:01;;;;;;;7.72;2.72;;;17.50;55.10;;;;;;5092038;28;20054;-70